sensor_id;sensor_type;location;lat;lon;timestamp;P1;durP1;ratioP1;P2;durP2;ratioP2
15637;SDS011;26604;53.596;10.042;2023-05-07T00:01:35;13.98;;;8.23;;
15637;SDS011;26604;53.596;10.042;2023-05-07T00:04:04;13.93;;;8.13;;
15637;SDS011;26604;53.596;10.042;2023-05-07T00:06:32;11.45;;;6.95;;
15637;SDS011;26604;53.596;10.042;2023-05-07T00:08:59;14.18;;;8.25;;
15637;SDS011;26604;53.596;10.042;2023-05-07T00:11:26;11.13;;;7.40;;
15637;SDS011;26604;53.596;10.042;2023-05-07T00:13:53;13.02;;;7.38;;
15637;SDS011;26604;53.596;10.042;2023-05-07T00:16:20;14.88;;;7.97;;
15637;SDS011;26604;53.596;10.042;2023-05-07T00:18:47;11.80;;;7.47;;
15637;SDS011;26604;53.596;10.042;2023-05-07T00:21:15;11.32;;;7.35;;
15637;SDS011;26604;53.596;10.042;2023-05-07T00:23:42;12.80;;;7.43;;
15637;SDS011;26604;53.596;10.042;2023-05-07T00:26:09;11.57;;;7.15;;
15637;SDS011;26604;53.596;10.042;2023-05-07T00:28:35;11.60;;;7.63;;
15637;SDS011;26604;53.596;10.042;2023-05-07T00:31:02;14.00;;;8.35;;
15637;SDS011;26604;53.596;10.042;2023-05-07T00:33:29;11.80;;;7.53;;
15637;SDS011;26604;53.596;10.042;2023-05-07T00:35:56;13.50;;;7.60;;
15637;SDS011;26604;53.596;10.042;2023-05-07T00:38:24;13.02;;;8.00;;
15637;SDS011;26604;53.596;10.042;2023-05-07T00:40:51;11.63;;;7.57;;
15637;SDS011;26604;53.596;10.042;2023-05-07T00:43:18;12.00;;;7.60;;
15637;SDS011;26604;53.596;10.042;2023-05-07T00:45:45;13.27;;;7.07;;
15637;SDS011;26604;53.596;10.042;2023-05-07T00:48:12;11.75;;;7.72;;
15637;SDS011;26604;53.596;10.042;2023-05-07T00:50:40;12.20;;;8.25;;
15637;SDS011;26604;53.596;10.042;2023-05-07T00:53:07;12.35;;;7.90;;
15637;SDS011;26604;53.596;10.042;2023-05-07T00:55:35;13.18;;;7.43;;
15637;SDS011;26604;53.596;10.042;2023-05-07T00:58:02;15.57;;;7.90;;
15637;SDS011;26604;53.596;10.042;2023-05-07T01:00:29;12.23;;;7.78;;
15637;SDS011;26604;53.596;10.042;2023-05-07T01:02:56;12.80;;;7.90;;
15637;SDS011;26604;53.596;10.042;2023-05-07T01:05:23;12.23;;;7.65;;
15637;SDS011;26604;53.596;10.042;2023-05-07T01:07:51;14.65;;;8.77;;
15637;SDS011;26604;53.596;10.042;2023-05-07T01:10:20;14.88;;;7.97;;
15637;SDS011;26604;53.596;10.042;2023-05-07T01:12:49;11.40;;;8.02;;
15637;SDS011;26604;53.596;10.042;2023-05-07T01:15:17;14.73;;;8.18;;
15637;SDS011;26604;53.596;10.042;2023-05-07T01:17:44;11.55;;;7.35;;
15637;SDS011;26604;53.596;10.042;2023-05-07T01:20:11;12.90;;;7.07;;
15637;SDS011;26604;53.596;10.042;2023-05-07T01:22:40;11.63;;;7.47;;
15637;SDS011;26604;53.596;10.042;2023-05-07T01:25:08;10.25;;;6.60;;
15637;SDS011;26604;53.596;10.042;2023-05-07T01:27:35;11.82;;;7.05;;
15637;SDS011;26604;53.596;10.042;2023-05-07T01:30:02;14.35;;;7.65;;
15637;SDS011;26604;53.596;10.042;2023-05-07T01:32:31;10.85;;;6.93;;
15637;SDS011;26604;53.596;10.042;2023-05-07T01:35:01;11.05;;;6.88;;
15637;SDS011;26604;53.596;10.042;2023-05-07T01:37:31;14.52;;;7.00;;
15637;SDS011;26604;53.596;10.042;2023-05-07T01:40:00;11.25;;;7.50;;
15637;SDS011;26604;53.596;10.042;2023-05-07T01:42:28;11.00;;;6.97;;
15637;SDS011;26604;53.596;10.042;2023-05-07T01:44:55;14.23;;;6.93;;
15637;SDS011;26604;53.596;10.042;2023-05-07T01:47:22;10.68;;;6.72;;
15637;SDS011;26604;53.596;10.042;2023-05-07T01:49:50;10.35;;;7.07;;
15637;SDS011;26604;53.596;10.042;2023-05-07T01:52:17;12.57;;;6.45;;
15637;SDS011;26604;53.596;10.042;2023-05-07T01:54:44;8.98;;;6.43;;
15637;SDS011;26604;53.596;10.042;2023-05-07T01:57:12;10.02;;;6.50;;
15637;SDS011;26604;53.596;10.042;2023-05-07T01:59:39;9.38;;;6.38;;
15637;SDS011;26604;53.596;10.042;2023-05-07T02:02:06;10.45;;;7.03;;
15637;SDS011;26604;53.596;10.042;2023-05-07T02:04:32;11.50;;;6.97;;
15637;SDS011;26604;53.596;10.042;2023-05-07T02:07:00;9.82;;;6.65;;
15637;SDS011;26604;53.596;10.042;2023-05-07T02:09:27;10.02;;;6.47;;
15637;SDS011;26604;53.596;10.042;2023-05-07T02:11:53;12.68;;;6.72;;
15637;SDS011;26604;53.596;10.042;2023-05-07T02:14:21;12.57;;;6.55;;
15637;SDS011;26604;53.596;10.042;2023-05-07T02:16:48;10.70;;;6.40;;
15637;SDS011;26604;53.596;10.042;2023-05-07T02:19:15;8.88;;;6.28;;
15637;SDS011;26604;53.596;10.042;2023-05-07T02:21:43;8.57;;;6.10;;
15637;SDS011;26604;53.596;10.042;2023-05-07T02:24:10;10.23;;;6.80;;
15637;SDS011;26604;53.596;10.042;2023-05-07T02:26:36;10.10;;;6.18;;
15637;SDS011;26604;53.596;10.042;2023-05-07T02:29:03;10.02;;;6.18;;
15637;SDS011;26604;53.596;10.042;2023-05-07T02:31:31;9.45;;;6.05;;
15637;SDS011;26604;53.596;10.042;2023-05-07T02:33:59;8.93;;;5.75;;
15637;SDS011;26604;53.596;10.042;2023-05-07T02:36:26;9.70;;;5.45;;
15637;SDS011;26604;53.596;10.042;2023-05-07T02:38:53;9.40;;;6.00;;
15637;SDS011;26604;53.596;10.042;2023-05-07T02:41:20;9.85;;;5.60;;
15637;SDS011;26604;53.596;10.042;2023-05-07T02:43:47;9.02;;;6.18;;
15637;SDS011;26604;53.596;10.042;2023-05-07T02:46:14;10.80;;;6.55;;
15637;SDS011;26604;53.596;10.042;2023-05-07T02:48:43;9.25;;;6.47;;
15637;SDS011;26604;53.596;10.042;2023-05-07T02:51:09;10.40;;;6.15;;
15637;SDS011;26604;53.596;10.042;2023-05-07T02:53:36;11.98;;;6.38;;
15637;SDS011;26604;53.596;10.042;2023-05-07T02:56:03;12.75;;;6.97;;
15637;SDS011;26604;53.596;10.042;2023-05-07T02:58:31;10.77;;;6.78;;
15637;SDS011;26604;53.596;10.042;2023-05-07T03:00:58;9.95;;;6.63;;
15637;SDS011;26604;53.596;10.042;2023-05-07T03:03:25;9.80;;;6.63;;
15637;SDS011;26604;53.596;10.042;2023-05-07T03:05:53;14.43;;;6.75;;
15637;SDS011;26604;53.596;10.042;2023-05-07T03:08:20;12.50;;;6.45;;
15637;SDS011;26604;53.596;10.042;2023-05-07T03:10:47;10.02;;;6.97;;
15637;SDS011;26604;53.596;10.042;2023-05-07T03:13:13;10.70;;;7.13;;
15637;SDS011;26604;53.596;10.042;2023-05-07T03:15:40;13.38;;;7.57;;
15637;SDS011;26604;53.596;10.042;2023-05-07T03:18:07;10.50;;;7.25;;
15637;SDS011;26604;53.596;10.042;2023-05-07T03:20:34;12.15;;;6.57;;
15637;SDS011;26604;53.596;10.042;2023-05-07T03:23:03;10.13;;;6.65;;
15637;SDS011;26604;53.596;10.042;2023-05-07T03:25:29;10.35;;;7.15;;
15637;SDS011;26604;53.596;10.042;2023-05-07T03:27:56;14.90;;;8.13;;
15637;SDS011;26604;53.596;10.042;2023-05-07T03:30:23;10.77;;;7.03;;
15637;SDS011;26604;53.596;10.042;2023-05-07T03:32:50;11.05;;;7.35;;
15637;SDS011;26604;53.596;10.042;2023-05-07T03:35:17;11.18;;;6.80;;
15637;SDS011;26604;53.596;10.042;2023-05-07T03:37:44;11.15;;;7.45;;
15637;SDS011;26604;53.596;10.042;2023-05-07T03:40:12;11.13;;;6.97;;
15637;SDS011;26604;53.596;10.042;2023-05-07T03:42:39;10.85;;;7.25;;
15637;SDS011;26604;53.596;10.042;2023-05-07T03:45:07;12.85;;;7.47;;
15637;SDS011;26604;53.596;10.042;2023-05-07T03:47:34;10.35;;;7.13;;
15637;SDS011;26604;53.596;10.042;2023-05-07T03:50:01;10.48;;;7.03;;
15637;SDS011;26604;53.596;10.042;2023-05-07T03:52:28;11.23;;;7.07;;
15637;SDS011;26604;53.596;10.042;2023-05-07T03:54:55;10.40;;;6.70;;
15637;SDS011;26604;53.596;10.042;2023-05-07T03:57:23;10.32;;;7.05;;
15637;SDS011;26604;53.596;10.042;2023-05-07T03:59:50;11.15;;;6.28;;
15637;SDS011;26604;53.596;10.042;2023-05-07T04:02:17;9.98;;;7.13;;
15637;SDS011;26604;53.596;10.042;2023-05-07T04:04:44;9.90;;;6.97;;
15637;SDS011;26604;53.596;10.042;2023-05-07T04:07:10;10.15;;;6.68;;
15637;SDS011;26604;53.596;10.042;2023-05-07T04:09:37;10.63;;;6.72;;
15637;SDS011;26604;53.596;10.042;2023-05-07T04:12:04;10.80;;;6.25;;
15637;SDS011;26604;53.596;10.042;2023-05-07T04:14:32;11.82;;;7.80;;
15637;SDS011;26604;53.596;10.042;2023-05-07T04:16:59;10.35;;;6.78;;
15637;SDS011;26604;53.596;10.042;2023-05-07T04:19:27;9.82;;;6.88;;
15637;SDS011;26604;53.596;10.042;2023-05-07T04:21:54;10.70;;;6.78;;
15637;SDS011;26604;53.596;10.042;2023-05-07T04:24:21;10.60;;;6.68;;
15637;SDS011;26604;53.596;10.042;2023-05-07T04:26:48;11.52;;;6.55;;
15637;SDS011;26604;53.596;10.042;2023-05-07T04:29:16;10.65;;;6.30;;
15637;SDS011;26604;53.596;10.042;2023-05-07T04:31:44;11.48;;;6.10;;
15637;SDS011;26604;53.596;10.042;2023-05-07T04:34:11;9.13;;;5.60;;
15637;SDS011;26604;53.596;10.042;2023-05-07T04:36:38;13.50;;;6.22;;
15637;SDS011;26604;53.596;10.042;2023-05-07T04:39:05;7.22;;;5.50;;
15637;SDS011;26604;53.596;10.042;2023-05-07T04:41:32;8.32;;;6.03;;
15637;SDS011;26604;53.596;10.042;2023-05-07T04:43:59;9.15;;;6.07;;
15637;SDS011;26604;53.596;10.042;2023-05-07T04:46:25;9.23;;;6.05;;
15637;SDS011;26604;53.596;10.042;2023-05-07T04:48:54;9.50;;;5.47;;
15637;SDS011;26604;53.596;10.042;2023-05-07T04:51:20;13.55;;;5.72;;
15637;SDS011;26604;53.596;10.042;2023-05-07T04:53:48;9.52;;;5.95;;
15637;SDS011;26604;53.596;10.042;2023-05-07T04:56:15;9.27;;;6.25;;
15637;SDS011;26604;53.596;10.042;2023-05-07T04:58:42;11.27;;;6.78;;
15637;SDS011;26604;53.596;10.042;2023-05-07T05:01:09;10.48;;;6.30;;
15637;SDS011;26604;53.596;10.042;2023-05-07T05:03:36;8.63;;;5.80;;
15637;SDS011;26604;53.596;10.042;2023-05-07T05:06:05;10.32;;;6.40;;
15637;SDS011;26604;53.596;10.042;2023-05-07T05:08:32;10.60;;;5.97;;
15637;SDS011;26604;53.596;10.042;2023-05-07T05:11:00;10.50;;;6.25;;
15637;SDS011;26604;53.596;10.042;2023-05-07T05:13:27;9.98;;;5.78;;
15637;SDS011;26604;53.596;10.042;2023-05-07T05:15:54;10.65;;;5.82;;
15637;SDS011;26604;53.596;10.042;2023-05-07T05:18:21;8.52;;;5.95;;
15637;SDS011;26604;53.596;10.042;2023-05-07T05:20:47;11.25;;;6.40;;
15637;SDS011;26604;53.596;10.042;2023-05-07T05:23:16;9.57;;;6.35;;
15637;SDS011;26604;53.596;10.042;2023-05-07T05:25:43;11.25;;;6.57;;
15637;SDS011;26604;53.596;10.042;2023-05-07T05:28:09;9.25;;;6.18;;
15637;SDS011;26604;53.596;10.042;2023-05-07T05:30:36;9.60;;;5.70;;
15637;SDS011;26604;53.596;10.042;2023-05-07T05:33:03;9.07;;;5.65;;
15637;SDS011;26604;53.596;10.042;2023-05-07T05:35:30;8.90;;;6.15;;
15637;SDS011;26604;53.596;10.042;2023-05-07T05:37:57;9.70;;;6.53;;
15637;SDS011;26604;53.596;10.042;2023-05-07T05:40:25;11.77;;;6.35;;
15637;SDS011;26604;53.596;10.042;2023-05-07T05:42:52;11.27;;;6.18;;
15637;SDS011;26604;53.596;10.042;2023-05-07T05:45:19;10.85;;;6.10;;
15637;SDS011;26604;53.596;10.042;2023-05-07T05:47:45;9.60;;;6.22;;
15637;SDS011;26604;53.596;10.042;2023-05-07T05:50:12;11.52;;;6.22;;
15637;SDS011;26604;53.596;10.042;2023-05-07T05:52:39;10.93;;;6.15;;
15637;SDS011;26604;53.596;10.042;2023-05-07T05:55:07;8.93;;;5.60;;
15637;SDS011;26604;53.596;10.042;2023-05-07T05:57:36;9.82;;;6.05;;
15637;SDS011;26604;53.596;10.042;2023-05-07T06:00:03;8.18;;;5.82;;
15637;SDS011;26604;53.596;10.042;2023-05-07T06:02:31;8.57;;;6.10;;
15637;SDS011;26604;53.596;10.042;2023-05-07T06:04:58;7.95;;;5.65;;
15637;SDS011;26604;53.596;10.042;2023-05-07T06:07:25;11.40;;;6.70;;
15637;SDS011;26604;53.596;10.042;2023-05-07T06:09:52;8.38;;;5.70;;
15637;SDS011;26604;53.596;10.042;2023-05-07T06:12:18;9.85;;;6.05;;
15637;SDS011;26604;53.596;10.042;2023-05-07T06:14:47;8.15;;;5.32;;
15637;SDS011;26604;53.596;10.042;2023-05-07T06:17:13;8.93;;;5.90;;
15637;SDS011;26604;53.596;10.042;2023-05-07T06:19:40;8.07;;;5.32;;
15637;SDS011;26604;53.596;10.042;2023-05-07T06:22:07;9.95;;;5.68;;
15637;SDS011;26604;53.596;10.042;2023-05-07T06:24:34;11.68;;;6.03;;
15637;SDS011;26604;53.596;10.042;2023-05-07T06:27:01;8.40;;;5.53;;
15637;SDS011;26604;53.596;10.042;2023-05-07T06:29:28;9.35;;;5.57;;
15637;SDS011;26604;53.596;10.042;2023-05-07T06:32:03;9.88;;;5.40;;
15637;SDS011;26604;53.596;10.042;2023-05-07T06:34:32;7.43;;;5.53;;
15637;SDS011;26604;53.596;10.042;2023-05-07T06:36:59;9.02;;;5.85;;
15637;SDS011;26604;53.596;10.042;2023-05-07T06:39:26;10.88;;;5.65;;
15637;SDS011;26604;53.596;10.042;2023-05-07T06:41:53;9.52;;;5.90;;
15637;SDS011;26604;53.596;10.042;2023-05-07T06:44:20;10.43;;;5.30;;
15637;SDS011;26604;53.596;10.042;2023-05-07T06:46:47;8.73;;;5.03;;
15637;SDS011;26604;53.596;10.042;2023-05-07T06:49:15;7.95;;;5.22;;
15637;SDS011;26604;53.596;10.042;2023-05-07T06:51:42;8.75;;;5.22;;
15637;SDS011;26604;53.596;10.042;2023-05-07T06:54:09;8.55;;;5.20;;
15637;SDS011;26604;53.596;10.042;2023-05-07T06:56:36;8.65;;;5.35;;
15637;SDS011;26604;53.596;10.042;2023-05-07T06:59:03;7.50;;;4.90;;
15637;SDS011;26604;53.596;10.042;2023-05-07T07:01:30;7.65;;;5.35;;
15637;SDS011;26604;53.596;10.042;2023-05-07T07:03:56;7.72;;;5.13;;
15637;SDS011;26604;53.596;10.042;2023-05-07T07:06:25;9.02;;;5.00;;
15637;SDS011;26604;53.596;10.042;2023-05-07T07:08:52;9.98;;;4.97;;
15637;SDS011;26604;53.596;10.042;2023-05-07T07:11:18;7.22;;;5.00;;
15637;SDS011;26604;53.596;10.042;2023-05-07T07:13:45;5.93;;;4.63;;
15637;SDS011;26604;53.596;10.042;2023-05-07T07:16:12;6.60;;;4.60;;
15637;SDS011;26604;53.596;10.042;2023-05-07T07:18:39;7.05;;;4.90;;
15637;SDS011;26604;53.596;10.042;2023-05-07T07:21:06;7.30;;;4.82;;
15637;SDS011;26604;53.596;10.042;2023-05-07T07:23:34;9.82;;;4.97;;
15637;SDS011;26604;53.596;10.042;2023-05-07T07:26:01;9.10;;;5.68;;
15637;SDS011;26604;53.596;10.042;2023-05-07T07:28:28;5.65;;;4.10;;
15637;SDS011;26604;53.596;10.042;2023-05-07T07:30:55;9.45;;;4.97;;
15637;SDS011;26604;53.596;10.042;2023-05-07T07:33:22;6.22;;;4.45;;
15637;SDS011;26604;53.596;10.042;2023-05-07T07:35:48;6.40;;;4.28;;
15637;SDS011;26604;53.596;10.042;2023-05-07T07:38:15;6.47;;;4.60;;
15637;SDS011;26604;53.596;10.042;2023-05-07T07:40:44;7.45;;;4.55;;
15637;SDS011;26604;53.596;10.042;2023-05-07T07:43:11;6.70;;;4.15;;
15637;SDS011;26604;53.596;10.042;2023-05-07T07:45:38;8.75;;;4.22;;
15637;SDS011;26604;53.596;10.042;2023-05-07T07:48:05;6.93;;;4.03;;
15637;SDS011;26604;53.596;10.042;2023-05-07T07:50:31;6.63;;;4.03;;
15637;SDS011;26604;53.596;10.042;2023-05-07T07:52:58;6.82;;;4.00;;
15637;SDS011;26604;53.596;10.042;2023-05-07T07:55:25;6.75;;;4.13;;
15637;SDS011;26604;53.596;10.042;2023-05-07T07:57:53;5.72;;;4.30;;
15637;SDS011;26604;53.596;10.042;2023-05-07T08:00:20;6.25;;;4.05;;
15637;SDS011;26604;53.596;10.042;2023-05-07T08:02:47;4.50;;;3.50;;
15637;SDS011;26604;53.596;10.042;2023-05-07T08:05:14;7.10;;;3.67;;
15637;SDS011;26604;53.596;10.042;2023-05-07T08:07:41;5.97;;;4.70;;
15637;SDS011;26604;53.596;10.042;2023-05-07T08:10:08;7.00;;;4.80;;
15637;SDS011;26604;53.596;10.042;2023-05-07T08:12:35;6.82;;;4.63;;
15637;SDS011;26604;53.596;10.042;2023-05-07T08:15:04;7.53;;;4.80;;
15637;SDS011;26604;53.596;10.042;2023-05-07T08:17:31;8.07;;;4.40;;
15637;SDS011;26604;53.596;10.042;2023-05-07T08:19:58;6.70;;;4.22;;
15637;SDS011;26604;53.596;10.042;2023-05-07T08:22:25;9.55;;;4.65;;
15637;SDS011;26604;53.596;10.042;2023-05-07T08:24:52;6.75;;;4.18;;
15637;SDS011;26604;53.596;10.042;2023-05-07T08:27:19;6.70;;;4.30;;
15637;SDS011;26604;53.596;10.042;2023-05-07T08:29:46;8.88;;;4.70;;
15637;SDS011;26604;53.596;10.042;2023-05-07T08:32:15;6.78;;;5.03;;
15637;SDS011;26604;53.596;10.042;2023-05-07T08:34:42;7.07;;;5.00;;
15637;SDS011;26604;53.596;10.042;2023-05-07T08:37:08;6.63;;;4.68;;
15637;SDS011;26604;53.596;10.042;2023-05-07T08:39:35;6.75;;;4.90;;
15637;SDS011;26604;53.596;10.042;2023-05-07T08:42:02;6.47;;;4.07;;
15637;SDS011;26604;53.596;10.042;2023-05-07T08:44:32;6.93;;;4.03;;
15637;SDS011;26604;53.596;10.042;2023-05-07T08:47:00;7.60;;;4.43;;
15637;SDS011;26604;53.596;10.042;2023-05-07T08:49:29;5.45;;;4.30;;
15637;SDS011;26604;53.596;10.042;2023-05-07T08:51:56;6.07;;;4.40;;
15637;SDS011;26604;53.596;10.042;2023-05-07T08:54:24;5.35;;;4.10;;
15637;SDS011;26604;53.596;10.042;2023-05-07T08:56:52;7.78;;;4.07;;
15637;SDS011;26604;53.596;10.042;2023-05-07T08:59:18;8.15;;;4.35;;
15637;SDS011;26604;53.596;10.042;2023-05-07T09:01:45;6.35;;;4.68;;
15637;SDS011;26604;53.596;10.042;2023-05-07T09:04:12;6.68;;;4.10;;
15637;SDS011;26604;53.596;10.042;2023-05-07T09:06:41;5.88;;;4.05;;
15637;SDS011;26604;53.596;10.042;2023-05-07T09:09:07;7.47;;;4.05;;
15637;SDS011;26604;53.596;10.042;2023-05-07T09:11:34;5.53;;;3.72;;
15637;SDS011;26604;53.596;10.042;2023-05-07T09:14:01;5.05;;;3.78;;
15637;SDS011;26604;53.596;10.042;2023-05-07T09:16:29;5.55;;;3.67;;
15637;SDS011;26604;53.596;10.042;2023-05-07T09:18:57;6.22;;;4.15;;
15637;SDS011;26604;53.596;10.042;2023-05-07T09:21:25;6.90;;;3.78;;
15637;SDS011;26604;53.596;10.042;2023-05-07T09:23:54;4.95;;;3.65;;
15637;SDS011;26604;53.596;10.042;2023-05-07T09:26:21;5.88;;;4.03;;
15637;SDS011;26604;53.596;10.042;2023-05-07T09:28:51;10.70;;;3.75;;
15637;SDS011;26604;53.596;10.042;2023-05-07T09:31:18;5.22;;;3.63;;
15637;SDS011;26604;53.596;10.042;2023-05-07T09:33:45;8.02;;;3.80;;
15637;SDS011;26604;53.596;10.042;2023-05-07T09:36:12;5.88;;;3.80;;
15637;SDS011;26604;53.596;10.042;2023-05-07T09:38:39;4.38;;;3.58;;
15637;SDS011;26604;53.596;10.042;2023-05-07T09:41:08;5.13;;;3.35;;
15637;SDS011;26604;53.596;10.042;2023-05-07T09:43:38;7.40;;;3.60;;
15637;SDS011;26604;53.596;10.042;2023-05-07T09:46:07;4.72;;;3.60;;
15637;SDS011;26604;53.596;10.042;2023-05-07T09:48:35;4.22;;;3.45;;
15637;SDS011;26604;53.596;10.042;2023-05-07T09:51:06;6.50;;;4.03;;
15637;SDS011;26604;53.596;10.042;2023-05-07T09:53:41;4.82;;;3.47;;
15637;SDS011;26604;53.596;10.042;2023-05-07T09:56:12;4.75;;;3.60;;
15637;SDS011;26604;53.596;10.042;2023-05-07T09:58:41;5.38;;;3.63;;
15637;SDS011;26604;53.596;10.042;2023-05-07T10:01:10;4.32;;;3.25;;
15637;SDS011;26604;53.596;10.042;2023-05-07T10:03:37;5.35;;;3.45;;
15637;SDS011;26604;53.596;10.042;2023-05-07T10:06:07;7.93;;;3.67;;
15637;SDS011;26604;53.596;10.042;2023-05-07T10:08:35;5.57;;;3.50;;
15637;SDS011;26604;53.596;10.042;2023-05-07T10:11:03;6.55;;;3.75;;
15637;SDS011;26604;53.596;10.042;2023-05-07T10:13:32;6.05;;;4.00;;
15637;SDS011;26604;53.596;10.042;2023-05-07T10:16:01;4.50;;;3.58;;
15637;SDS011;26604;53.596;10.042;2023-05-07T10:18:29;4.60;;;3.70;;
15637;SDS011;26604;53.596;10.042;2023-05-07T10:20:59;4.80;;;3.70;;
15637;SDS011;26604;53.596;10.042;2023-05-07T10:23:30;6.80;;;4.32;;
15637;SDS011;26604;53.596;10.042;2023-05-07T10:25:59;7.43;;;3.22;;
15637;SDS011;26604;53.596;10.042;2023-05-07T10:28:28;6.45;;;3.33;;
15637;SDS011;26604;53.596;10.042;2023-05-07T10:31:01;5.80;;;3.78;;
15637;SDS011;26604;53.596;10.042;2023-05-07T10:33:40;4.72;;;3.58;;
15637;SDS011;26604;53.596;10.042;2023-05-07T10:36:10;6.65;;;3.90;;
15637;SDS011;26604;53.596;10.042;2023-05-07T10:38:38;4.50;;;3.00;;
15637;SDS011;26604;53.596;10.042;2023-05-07T10:41:05;4.75;;;3.67;;
15637;SDS011;26604;53.596;10.042;2023-05-07T10:43:42;4.03;;;3.60;;
15637;SDS011;26604;53.596;10.042;2023-05-07T10:46:13;7.75;;;3.65;;
15637;SDS011;26604;53.596;10.042;2023-05-07T10:51:35;4.75;;;3.50;;
15637;SDS011;26604;53.596;10.042;2023-05-07T10:54:21;4.40;;;3.42;;
15637;SDS011;26604;53.596;10.042;2023-05-07T10:56:48;5.35;;;3.67;;
15637;SDS011;26604;53.596;10.042;2023-05-07T10:59:35;4.38;;;3.25;;
15637;SDS011;26604;53.596;10.042;2023-05-07T11:02:09;5.45;;;3.50;;
15637;SDS011;26604;53.596;10.042;2023-05-07T11:04:39;5.15;;;3.55;;
15637;SDS011;26604;53.596;10.042;2023-05-07T11:07:29;3.92;;;3.25;;
15637;SDS011;26604;53.596;10.042;2023-05-07T11:09:57;3.78;;;3.08;;
15637;SDS011;26604;53.596;10.042;2023-05-07T11:15:32;4.20;;;2.75;;
15637;SDS011;26604;53.596;10.042;2023-05-07T11:18:08;4.63;;;2.80;;
15637;SDS011;26604;53.596;10.042;2023-05-07T11:20:46;5.20;;;2.90;;
15637;SDS011;26604;53.596;10.042;2023-05-07T11:26:24;9.15;;;3.72;;
15637;SDS011;26604;53.596;10.042;2023-05-07T11:28:51;7.28;;;2.80;;
15637;SDS011;26604;53.596;10.042;2023-05-07T11:31:23;4.57;;;2.88;;
15637;SDS011;26604;53.596;10.042;2023-05-07T11:33:53;5.28;;;2.53;;
15637;SDS011;26604;53.596;10.042;2023-05-07T11:36:21;3.33;;;2.65;;
15637;SDS011;26604;53.596;10.042;2023-05-07T11:38:49;5.57;;;2.78;;
15637;SDS011;26604;53.596;10.042;2023-05-07T11:41:16;4.95;;;2.55;;
15637;SDS011;26604;53.596;10.042;2023-05-07T11:43:55;4.63;;;2.30;;
15637;SDS011;26604;53.596;10.042;2023-05-07T11:46:23;4.45;;;2.67;;
15637;SDS011;26604;53.596;10.042;2023-05-07T11:48:50;7.70;;;3.03;;
15637;SDS011;26604;53.596;10.042;2023-05-07T11:51:22;3.70;;;2.67;;
15637;SDS011;26604;53.596;10.042;2023-05-07T11:53:52;6.32;;;3.35;;
15637;SDS011;26604;53.596;10.042;2023-05-07T11:56:19;4.57;;;2.63;;
15637;SDS011;26604;53.596;10.042;2023-05-07T12:01:17;10.02;;;2.97;;
15637;SDS011;26604;53.596;10.042;2023-05-07T12:03:44;4.85;;;2.65;;
15637;SDS011;26604;53.596;10.042;2023-05-07T12:06:13;3.13;;;2.40;;
15637;SDS011;26604;53.596;10.042;2023-05-07T12:08:42;5.18;;;2.95;;
15637;SDS011;26604;53.596;10.042;2023-05-07T12:11:13;8.18;;;2.67;;
15637;SDS011;26604;53.596;10.042;2023-05-07T12:13:42;4.50;;;2.33;;
15637;SDS011;26604;53.596;10.042;2023-05-07T12:16:09;3.58;;;2.28;;
15637;SDS011;26604;53.596;10.042;2023-05-07T12:18:37;3.08;;;1.92;;
15637;SDS011;26604;53.596;10.042;2023-05-07T12:21:04;3.65;;;2.03;;
15637;SDS011;26604;53.596;10.042;2023-05-07T12:23:34;3.80;;;2.33;;
15637;SDS011;26604;53.596;10.042;2023-05-07T12:26:02;3.17;;;2.03;;
15637;SDS011;26604;53.596;10.042;2023-05-07T12:28:29;3.67;;;2.00;;
15637;SDS011;26604;53.596;10.042;2023-05-07T12:30:57;3.53;;;2.50;;
15637;SDS011;26604;53.596;10.042;2023-05-07T12:33:25;3.38;;;2.03;;
15637;SDS011;26604;53.596;10.042;2023-05-07T12:35:54;2.03;;;1.80;;
15637;SDS011;26604;53.596;10.042;2023-05-07T12:38:22;3.35;;;2.10;;
15637;SDS011;26604;53.596;10.042;2023-05-07T12:40:50;3.95;;;1.80;;
15637;SDS011;26604;53.596;10.042;2023-05-07T12:43:20;2.80;;;1.90;;
15637;SDS011;26604;53.596;10.042;2023-05-07T12:45:50;4.75;;;2.72;;
15637;SDS011;26604;53.596;10.042;2023-05-07T12:48:20;3.08;;;2.08;;
15637;SDS011;26604;53.596;10.042;2023-05-07T12:50:51;4.10;;;1.95;;
15637;SDS011;26604;53.596;10.042;2023-05-07T12:53:20;2.22;;;1.50;;
15637;SDS011;26604;53.596;10.042;2023-05-07T12:55:49;2.85;;;2.05;;
15637;SDS011;26604;53.596;10.042;2023-05-07T12:58:18;2.28;;;1.70;;
15637;SDS011;26604;53.596;10.042;2023-05-07T13:00:47;2.30;;;1.70;;
15637;SDS011;26604;53.596;10.042;2023-05-07T13:03:20;3.78;;;2.42;;
15637;SDS011;26604;53.596;10.042;2023-05-07T13:05:48;4.53;;;1.88;;
15637;SDS011;26604;53.596;10.042;2023-05-07T13:08:26;2.83;;;1.70;;
15637;SDS011;26604;53.596;10.042;2023-05-07T13:10:56;3.22;;;2.35;;
15637;SDS011;26604;53.596;10.042;2023-05-07T13:13:24;2.45;;;1.63;;
15637;SDS011;26604;53.596;10.042;2023-05-07T13:15:51;4.85;;;2.40;;
15637;SDS011;26604;53.596;10.042;2023-05-07T13:18:18;3.15;;;1.92;;
15637;SDS011;26604;53.596;10.042;2023-05-07T13:20:45;2.17;;;1.80;;
15637;SDS011;26604;53.596;10.042;2023-05-07T13:23:12;2.90;;;2.15;;
15637;SDS011;26604;53.596;10.042;2023-05-07T13:25:39;4.07;;;1.85;;
15637;SDS011;26604;53.596;10.042;2023-05-07T13:28:07;2.72;;;1.70;;
15637;SDS011;26604;53.596;10.042;2023-05-07T13:30:34;3.97;;;2.17;;
15637;SDS011;26604;53.596;10.042;2023-05-07T13:33:01;4.97;;;2.70;;
15637;SDS011;26604;53.596;10.042;2023-05-07T13:35:28;2.08;;;1.77;;
15637;SDS011;26604;53.596;10.042;2023-05-07T13:37:55;3.03;;;2.08;;
15637;SDS011;26604;53.596;10.042;2023-05-07T13:40:22;3.10;;;2.00;;
15637;SDS011;26604;53.596;10.042;2023-05-07T13:42:49;2.85;;;2.33;;
15637;SDS011;26604;53.596;10.042;2023-05-07T13:45:17;2.53;;;2.25;;
15637;SDS011;26604;53.596;10.042;2023-05-07T13:47:44;2.67;;;1.92;;
15637;SDS011;26604;53.596;10.042;2023-05-07T13:50:11;5.13;;;2.00;;
15637;SDS011;26604;53.596;10.042;2023-05-07T13:52:40;4.25;;;1.65;;
15637;SDS011;26604;53.596;10.042;2023-05-07T13:55:08;3.00;;;1.92;;
15637;SDS011;26604;53.596;10.042;2023-05-07T13:57:36;2.58;;;1.60;;
15637;SDS011;26604;53.596;10.042;2023-05-07T14:00:05;4.13;;;2.15;;
15637;SDS011;26604;53.596;10.042;2023-05-07T14:02:33;2.53;;;2.20;;
15637;SDS011;26604;53.596;10.042;2023-05-07T14:08:22;3.53;;;2.38;;
15637;SDS011;26604;53.596;10.042;2023-05-07T14:10:49;2.78;;;1.70;;
15637;SDS011;26604;53.596;10.042;2023-05-07T14:13:16;1.77;;;1.42;;
15637;SDS011;26604;53.596;10.042;2023-05-07T14:15:42;2.25;;;1.42;;
15637;SDS011;26604;53.596;10.042;2023-05-07T14:18:12;2.53;;;1.52;;
15637;SDS011;26604;53.596;10.042;2023-05-07T14:20:39;4.28;;;2.22;;
15637;SDS011;26604;53.596;10.042;2023-05-07T14:23:08;2.53;;;1.80;;
15637;SDS011;26604;53.596;10.042;2023-05-07T14:25:35;2.80;;;1.90;;
15637;SDS011;26604;53.596;10.042;2023-05-07T14:28:01;1.80;;;1.65;;
15637;SDS011;26604;53.596;10.042;2023-05-07T14:30:28;2.58;;;1.92;;
15637;SDS011;26604;53.596;10.042;2023-05-07T14:32:55;5.28;;;1.95;;
15637;SDS011;26604;53.596;10.042;2023-05-07T14:35:23;3.50;;;1.75;;
15637;SDS011;26604;53.596;10.042;2023-05-07T14:37:50;3.53;;;2.00;;
15637;SDS011;26604;53.596;10.042;2023-05-07T14:40:17;2.40;;;1.80;;
15637;SDS011;26604;53.596;10.042;2023-05-07T14:42:44;3.03;;;1.67;;
15637;SDS011;26604;53.596;10.042;2023-05-07T14:45:11;3.45;;;1.90;;
15637;SDS011;26604;53.596;10.042;2023-05-07T14:47:38;3.75;;;2.00;;
15637;SDS011;26604;53.596;10.042;2023-05-07T14:50:05;2.30;;;1.45;;